Time;durP1;ratioP1;P1;durP2;ratioP2;P2;SDS_P1;SDS_P2;PMS_P1;PMS_P2;Temp;Humidity;BMP_temperature;BMP_pressure;BME280_temperature;BME280_humidity;BME280_pressure;Samples;Min_cycle;Max_cycle;Signal;HPM_P1;HPM_P2
2021/12/03 00:01:43;;;;;;;12.63;6.33;;;;;;;1.18;69.81;98726.51;1832412;78;25545;-68
2021/12/03 00:04:09;;;;;;;11.73;6.25;;;;;;;1.17;69.81;98734.23;1832323;78;25665;-68
2021/12/03 00:06:38;;;;;;;13.85;6.40;;;;;;;1.17;69.79;98746.77;1832508;78;25660;-69
2021/12/03 00:09:07;;;;;;;9.83;6.47;;;;;;;1.16;69.85;98741.17;1799654;79;27379;-69
2021/12/03 00:11:35;;;;;;;11.60;7.25;;;;;;;1.15;70.04;98740.39;1852631;77;25887;-69
2021/12/03 00:14:01;;;;;;;11.60;5.92;;;;;;;1.14;69.94;98738.79;1832449;78;25441;-69
2021/12/03 00:16:28;;;;;;;12.73;6.87;;;;;;;1.13;70.08;98736.44;1806573;78;25708;-69
2021/12/03 00:18:55;;;;;;;11.70;7.25;;;;;;;1.11;70.18;98736.17;1832555;78;25697;-69
2021/12/03 00:21:24;;;;;;;11.35;6.58;;;;;;;1.13;70.27;98740.44;1799705;79;27326;-69
2021/12/03 00:23:51;;;;;;;11.83;6.87;;;;;;;1.11;70.22;98740.16;1852537;77;26248;-69
2021/12/03 00:26:18;;;;;;;16.75;6.15;;;;;;;1.11;70.42;98735.39;1832427;78;25435;-69
2021/12/03 00:28:45;;;;;;;17.23;8.25;;;;;;;1.10;70.40;98745.77;1832403;78;26929;-69
2021/12/03 00:31:13;;;;;;;13.10;7.65;;;;;;;1.09;70.44;98748.98;1832448;78;25640;-69
2021/12/03 00:33:42;;;;;;;12.47;7.03;;;;;;;1.07;70.53;98743.16;1799343;79;27988;-69
2021/12/03 00:36:10;;;;;;;9.18;5.55;;;;;;;1.07;70.68;98751.14;1854997;77;25733;-69
2021/12/03 00:38:43;;;;;;;11.68;5.92;;;;;;;1.05;70.61;98761.81;1854896;77;25557;-69
2021/12/03 00:41:14;;;;;;;7.12;5.03;;;;;;;1.00;70.79;98767.98;1854966;77;25662;-69
2021/12/03 00:43:47;;;;;;;12.53;5.85;;;;;;;1.00;70.87;98763.20;1854926;77;25604;-69
2021/12/03 00:46:16;;;;;;;11.50;5.85;;;;;;;0.95;70.88;98760.04;1831784;78;27345;-69
2021/12/03 00:48:47;;;;;;;10.53;5.55;;;;;;;0.92;70.95;98769.95;1799177;79;25834;-69
2021/12/03 00:51:15;;;;;;;10.80;5.50;;;;;;;0.89;71.08;98773.95;1854960;77;25590;-69
2021/12/03 00:53:43;;;;;;;11.00;6.30;;;;;;;0.85;71.28;98771.61;1854857;77;25601;-69
2021/12/03 00:56:11;;;;;;;16.00;8.20;;;;;;;0.82;71.40;98782.00;1854835;77;25697;-69
2021/12/03 00:58:38;;;;;;;10.10;5.50;;;;;;;0.79;71.62;98787.36;1854963;77;27392;-69
2021/12/03 01:01:07;;;;;;;15.93;5.65;;;;;;;0.77;71.79;98786.86;1854799;77;25675;-69
2021/12/03 01:03:36;;;;;;;10.15;5.97;;;;;;;0.74;71.76;98793.52;1854889;77;25602;-69
2021/12/03 01:06:03;;;;;;;13.98;6.58;;;;;;;0.73;71.85;98799.94;1855057;77;26161;-69
2021/12/03 01:08:35;;;;;;;10.93;6.83;;;;;;;0.73;72.12;98794.61;1831839;78;26231;-69
2021/12/03 01:10:59;;;;;;;11.75;6.42;;;;;;;0.72;72.02;98785.58;1830123;78;27242;-69
2021/12/03 01:13:26;;;;;;;13.43;5.53;;;;;;;0.70;72.10;98792.50;1798956;79;25392;-69
2021/12/03 01:15:52;;;;;;;14.33;6.17;;;;;;;0.67;72.01;98799.71;1855008;77;25660;-69
2021/12/03 01:18:19;;;;;;;12.78;6.12;;;;;;;0.67;72.05;98801.59;1854828;77;25557;-69
2021/12/03 01:20:46;;;;;;;9.13;5.72;;;;;;;0.62;72.14;98797.64;1854966;77;25587;-69
2021/12/03 01:23:15;;;;;;;17.25;6.85;;;;;;;0.59;72.41;98796.31;1854857;77;27894;-69
2021/12/03 01:25:43;;;;;;;11.75;6.53;;;;;;;0.56;72.28;98798.20;1854883;77;25690;-69
2021/12/03 01:28:11;;;;;;;17.77;8.50;;;;;;;0.52;72.46;98797.97;1854787;77;25348;-69
2021/12/03 01:30:39;;;;;;;16.53;12.17;;;;;;;0.50;72.64;98808.10;1855081;77;25669;-69
2021/12/03 01:33:06;;;;;;;11.10;6.55;;;;;;;0.48;72.74;98806.27;1854836;77;25523;-68
2021/12/03 01:35:34;;;;;;;14.90;8.63;;;;;;;0.48;72.98;98808.14;1854289;77;27308;-68
2021/12/03 01:38:03;;;;;;;21.52;11.20;;;;;;;0.47;73.22;98804.66;1854153;77;25910;-69
2021/12/03 01:40:31;;;;;;;13.98;6.95;;;;;;;0.48;73.33;98812.13;1854408;77;25586;-69
2021/12/03 01:42:59;;;;;;;12.30;6.83;;;;;;;0.49;73.43;98809.70;1854205;77;26164;-69
2021/12/03 01:45:35;;;;;;;13.15;5.95;;;;;;;0.50;73.57;98816.62;1854201;77;25709;-69
2021/12/03 01:48:03;;;;;;;13.00;7.22;;;;;;;0.53;73.63;98824.06;1854319;77;27320;-69
2021/12/03 01:50:35;;;;;;;12.35;6.75;;;;;;;0.55;73.64;98822.70;1854169;77;26188;-69
2021/12/03 01:53:04;;;;;;;10.53;7.10;;;;;;;0.58;73.71;98829.86;1818655;78;25717;-69
2021/12/03 01:55:32;;;;;;;10.75;5.83;;;;;;;0.56;73.72;98824.81;1787736;80;26282;-69
2021/12/03 01:58:00;;;;;;;13.75;7.50;;;;;;;0.59;73.79;98829.58;1805876;79;25404;-69
2021/12/03 02:00:37;;;;;;;11.45;6.22;;;;;;;0.62;73.94;98832.23;1805846;79;27926;-69
2021/12/03 02:03:07;;;;;;;14.43;6.25;;;;;;;0.61;73.92;98838.62;1854188;77;25606;-69
2021/12/03 02:05:35;;;;;;;11.55;6.47;;;;;;;0.62;73.99;98840.22;1854182;77;25607;-69
2021/12/03 02:08:04;;;;;;;14.30;8.08;;;;;;;0.62;74.05;98846.33;1854211;77;25658;-69
2021/12/03 02:10:30;;;;;;;12.55;7.92;;;;;;;0.64;73.95;98851.38;1854251;77;25526;-69
2021/12/03 02:12:57;;;;;;;11.70;6.50;;;;;;;0.65;74.10;98851.09;1854177;77;27336;-69
2021/12/03 02:15:24;;;;;;;12.15;6.72;;;;;;;0.68;74.10;98853.72;1854114;77;26150;-69
2021/12/03 02:17:53;;;;;;;12.70;6.80;;;;;;;0.68;74.07;98850.55;1854294;77;25484;-69
2021/12/03 02:20:20;;;;;;;15.03;7.78;;;;;;;0.69;73.97;98858.77;1819758;78;25618;-69
2021/12/03 02:22:48;;;;;;;16.12;8.83;;;;;;;0.68;73.98;98856.39;1819880;78;25696;-69
2021/12/03 02:25:21;;;;;;;11.12;7.37;;;;;;;0.68;74.00;98859.86;1819844;78;27344;-69
2021/12/03 02:27:51;;;;;;;11.55;7.22;;;;;;;0.70;74.04;98870.23;1819743;78;26100;-69
2021/12/03 02:30:20;;;;;;;13.78;8.15;;;;;;;0.69;73.94;98867.30;1819752;78;25676;-69
2021/12/03 02:32:49;;;;;;;14.63;7.90;;;;;;;0.69;73.91;98873.95;1787568;80;26201;-69
2021/12/03 02:35:18;;;;;;;13.98;9.00;;;;;;;0.66;73.84;98879.28;1796279;79;25544;-69
2021/12/03 02:37:46;;;;;;;16.10;8.25;;;;;;;0.63;73.76;98886.52;1794666;80;27350;-69
2021/12/03 02:40:14;;;;;;;16.90;8.03;;;;;;;0.61;73.71;98889.18;1799683;79;25604;-69
2021/12/03 02:42:43;;;;;;;14.63;9.03;;;;;;;0.54;73.80;98892.16;1799856;79;25719;-69
2021/12/03 02:45:12;;;;;;;12.75;7.22;;;;;;;0.51;73.61;98902.83;1799780;79;25665;-69
2021/12/03 02:47:40;;;;;;;12.45;6.92;;;;;;;0.47;73.79;98911.08;1799895;79;25451;-69
2021/12/03 02:50:10;;;;;;;13.98;7.60;;;;;;;0.43;73.93;98909.27;1799842;79;27361;-69
2021/12/03 02:52:37;;;;;;;12.37;7.08;;;;;;;0.41;74.20;98907.39;1799792;79;25675;-69
2021/12/03 02:55:06;;;;;;;14.05;7.15;;;;;;;0.40;74.42;98921.78;1799810;79;25920;-69
2021/12/03 02:57:34;;;;;;;15.23;7.87;;;;;;;0.39;74.51;98914.31;1799546;79;25735;-69
2021/12/03 03:00:01;;;;;;;15.98;7.85;;;;;;;0.40;74.62;98919.91;1799943;79;25667;-69
2021/12/03 03:02:27;;;;;;;14.78;7.15;;;;;;;0.41;74.71;98930.83;1799878;79;27887;-70
2021/12/03 03:04:55;;;;;;;14.07;7.50;;;;;;;0.43;74.91;98927.34;1799703;79;25638;-70
2021/12/03 03:07:22;;;;;;;12.53;7.28;;;;;;;0.44;74.98;98926.80;1799845;79;25664;-69
2021/12/03 03:09:49;;;;;;;13.55;7.45;;;;;;;0.44;74.90;98934.78;1799666;79;25648;-69
2021/12/03 03:12:17;;;;;;;14.53;7.72;;;;;;;0.45;74.93;98939.05;1799791;79;25694;-69
2021/12/03 03:14:56;;;;;;;12.58;7.75;;;;;;;0.45;75.04;98941.16;1799808;79;27956;-69
2021/12/03 03:17:27;;;;;;;12.60;7.70;;;;;;;0.46;75.09;98940.63;1799864;79;25627;-69
2021/12/03 03:19:55;;;;;;;13.58;7.80;;;;;;;0.44;75.12;98946.21;1799959;79;25604;-69
2021/12/03 03:22:23;;;;;;;13.00;7.25;;;;;;;0.44;75.09;98942.22;1799703;79;26313;-69
2021/12/03 03:24:52;;;;;;;11.75;7.42;;;;;;;0.44;75.43;98941.44;1799859;79;25628;-70
2021/12/03 03:27:20;;;;;;;13.88;6.83;;;;;;;0.41;75.36;98948.63;1800069;79;27999;-70
2021/12/03 03:29:49;;;;;;;13.78;8.45;;;;;;;0.40;75.34;98953.70;1799860;79;25371;-70
2021/12/03 03:32:18;;;;;;;15.60;7.78;;;;;;;0.39;75.26;98953.44;1799755;79;25895;-69
2021/12/03 03:34:45;;;;;;;16.42;8.28;;;;;;;0.36;75.19;98962.23;1799883;79;26314;-70
2021/12/03 03:37:12;;;;;;;19.27;9.95;;;;;;;0.34;75.42;98964.37;1799892;79;25649;-69
2021/12/03 03:39:39;;;;;;;16.17;9.28;;;;;;;0.32;75.50;98975.02;1777584;79;27933;-69
2021/12/03 03:42:06;;;;;;;12.82;7.75;;;;;;;0.31;75.72;98991.52;1747382;82;25546;-69
2021/12/03 03:44:33;;;;;;;12.03;7.25;;;;;;;0.31;75.87;98985.41;1764923;81;25686;-69
2021/12/03 03:47:01;;;;;;;17.98;7.87;;;;;;;0.29;76.30;98993.66;1751034;82;26356;-70
2021/12/03 03:49:30;;;;;;;14.13;7.72;;;;;;;0.27;76.24;98990.99;1778446;80;25532;-70
2021/12/03 03:51:58;;;;;;;10.35;5.65;;;;;;;0.24;76.07;98995.01;1765159;81;27912;-70
2021/12/03 03:54:25;;;;;;;13.38;7.35;;;;;;;0.24;76.14;99001.66;1750836;82;25670;-70
2021/12/03 03:56:52;;;;;;;12.55;7.62;;;;;;;0.20;76.02;99008.57;1751156;81;25653;-70
2021/12/03 03:59:19;;;;;;;12.30;6.97;;;;;;;0.18;76.04;99013.38;1751106;81;25637;-70
2021/12/03 04:01:49;;;;;;;14.85;8.20;;;;;;;0.17;75.96;99013.09;1751187;81;25662;-70
2021/12/03 04:04:16;;;;;;;14.03;7.28;;;;;;;0.13;76.12;99013.39;1751191;81;27380;-70
2021/12/03 04:06:44;;;;;;;11.57;6.12;;;;;;;0.12;76.26;99016.59;1751057;81;25710;-70
2021/12/03 04:09:12;;;;;;;11.43;6.87;;;;;;;0.08;76.29;99013.41;1751114;81;25614;-70
2021/12/03 04:11:39;;;;;;;16.17;8.58;;;;;;;0.05;76.62;99015.27;1751080;81;26212;-70
2021/12/03 04:14:06;;;;;;;11.05;7.12;;;;;;;0.01;76.34;99011.57;1751232;81;25583;-71
2021/12/03 04:16:33;;;;;;;11.38;6.78;;;;;;;-0.01;76.71;99013.17;1751176;81;28050;-70
2021/12/03 04:19:00;;;;;;;12.35;7.47;;;;;;;-0.06;76.79;99011.31;1751187;81;25627;-70
2021/12/03 04:21:27;;;;;;;10.82;7.67;;;;;;;-0.08;76.78;99020.09;1751155;81;25722;-70
2021/12/03 04:23:54;;;;;;;11.63;7.20;;;;;;;-0.09;76.89;99025.67;1751078;81;25679;-70
2021/12/03 04:26:21;;;;;;;12.53;7.53;;;;;;;-0.13;76.80;99029.41;1751097;81;25619;-70
2021/12/03 04:28:48;;;;;;;12.80;6.80;;;;;;;-0.16;76.82;99026.49;1751174;81;27321;-70
2021/12/03 04:31:18;;;;;;;12.65;6.53;;;;;;;-0.17;77.03;99037.67;1751089;81;25773;-70
2021/12/03 04:33:43;;;;;;;12.50;7.22;;;;;;;-0.18;77.25;99040.05;1750819;81;25410;-70
2021/12/03 04:36:10;;;;;;;13.48;6.90;;;;;;;-0.18;77.43;99040.05;1751048;80;26167;-69
2021/12/03 04:38:37;;;;;;;11.43;7.12;;;;;;;-0.18;77.53;99036.60;1751286;81;25732;-69
2021/12/03 04:41:04;;;;;;;11.95;6.65;;;;;;;-0.17;77.51;99043.49;1751244;81;27338;-70
2021/12/03 04:43:32;;;;;;;14.38;7.55;;;;;;;-0.15;77.76;99049.33;1750957;81;25664;-70
2021/12/03 04:45:58;;;;;;;12.80;6.10;;;;;;;-0.16;77.72;99045.88;1751090;81;25342;-70
2021/12/03 04:48:25;;;;;;;12.82;7.25;;;;;;;-0.13;78.05;99051.22;1751035;81;25887;-70
2021/12/03 04:50:53;;;;;;;12.23;7.47;;;;;;;-0.10;78.09;99054.64;1751246;81;25403;-69
2021/12/03 04:53:19;;;;;;;13.50;6.85;;;;;;;-0.08;78.19;99063.17;1751099;81;27321;-70
2021/12/03 04:55:49;;;;;;;13.60;7.08;;;;;;;-0.06;78.14;99064.48;1751046;81;25621;-70
2021/12/03 04:58:16;;;;;;;;;;;;;;;-0.04;78.22;99064.21;1753747;81;25630;-70
2021/12/03 05:00:55;;;;;;;11.80;6.53;;;;;;;0.02;78.24;99070.31;1751120;81;25743;-70
2021/12/03 05:03:25;;;;;;;11.08;6.92;;;;;;;0.05;78.21;99072.44;1751236;81;25870;-70
2021/12/03 05:05:55;;;;;;;11.65;6.95;;;;;;;0.08;78.25;99073.23;1751206;81;27351;-70
2021/12/03 05:08:27;;;;;;;13.48;7.55;;;;;;;0.12;78.25;99075.60;1750918;81;25711;-70
2021/12/03 05:10:57;;;;;;;11.85;6.65;;;;;;;0.15;78.18;99081.20;1751010;81;25675;-71
2021/12/03 05:13:28;;;;;;;11.18;6.62;;;;;;;0.18;78.08;99084.63;1751095;81;25675;-70
2021/12/03 05:15:55;;;;;;;16.45;7.58;;;;;;;0.21;77.95;99081.98;1750730;81;25557;-70
2021/12/03 05:18:25;;;;;;;14.33;8.35;;;;;;;0.23;77.79;99084.38;1751110;81;27396;-70
2021/12/03 05:20:54;;;;;;;12.43;6.80;;;;;;;0.24;77.61;99084.11;1750960;81;25603;-70
2021/12/03 05:23:23;;;;;;;8.35;5.12;;;;;;;0.26;77.42;99091.82;1751278;81;25623;-70
2021/12/03 05:25:50;;;;;;;8.10;6.15;;;;;;;0.28;77.29;99098.98;1751273;81;25739;-70
2021/12/03 05:28:18;;;;;;;7.12;5.28;;;;;;;0.28;77.18;99091.80;1749222;82;25636;-70
2021/12/03 05:30:45;;;;;;;13.72;6.30;;;;;;;0.30;76.90;99096.85;1765137;81;27324;-70
2021/12/03 05:33:12;;;;;;;9.40;5.15;;;;;;;0.32;76.61;99101.36;1751099;81;25660;-69
2021/12/03 05:35:38;;;;;;;7.37;5.22;;;;;;;0.33;76.03;99105.62;1751238;80;25394;-70
2021/12/03 05:38:06;;;;;;;9.85;5.30;;;;;;;0.34;76.05;99116.52;1751331;81;25701;-68
2021/12/03 05:40:33;;;;;;;10.78;6.35;;;;;;;0.35;76.20;99107.48;1751355;81;26200;-70
2021/12/03 05:43:02;;;;;;;10.30;6.45;;;;;;;0.38;76.23;99109.60;1751076;81;27328;-70
2021/12/03 05:45:33;;;;;;;13.95;7.47;;;;;;;0.36;76.13;99108.54;1751146;81;33164;-70
2021/12/03 05:48:00;;;;;;;12.85;7.62;;;;;;;0.36;76.29;99122.38;1758700;81;25734;-70
2021/12/03 05:50:29;;;;;;;14.85;9.03;;;;;;;0.36;76.49;99120.52;1758607;81;26306;-69
2021/12/03 05:52:57;;;;;;;14.98;9.15;;;;;;;0.39;76.44;99139.66;1758790;81;32826;-69
2021/12/03 05:55:26;;;;;;;14.95;8.35;;;;;;;0.39;76.74;99139.11;1758491;81;27963;-69
2021/12/03 05:57:55;;;;;;;14.25;7.87;;;;;;;0.39;76.87;99143.10;1750971;81;25806;-69
2021/12/03 06:00:33;;;;;;;13.03;7.45;;;;;;;0.42;77.05;99139.13;1750925;81;25618;-69
2021/12/03 06:02:59;;;;;;;13.15;7.87;;;;;;;0.42;76.95;99137.80;1746628;82;26044;-69
2021/12/03 06:05:29;;;;;;;19.45;9.58;;;;;;;0.43;77.10;99140.73;1764996;81;25626;-70
2021/12/03 06:07:58;;;;;;;17.12;9.05;;;;;;;0.44;77.06;99140.97;1747657;82;27323;-69
2021/12/03 06:10:26;;;;;;;16.10;8.30;;;;;;;0.45;77.13;99150.56;1764855;81;27176;-67
2021/12/03 06:12:54;;;;;;;14.73;8.55;;;;;;;0.42;77.22;99151.09;1747752;82;25718;-68
2021/12/03 06:15:24;;;;;;;16.02;8.63;;;;;;;0.41;77.18;99155.63;1764982;81;26228;-70
2021/12/03 06:17:51;;;;;;;15.20;8.48;;;;;;;0.40;77.23;99156.68;1725009;82;25376;-70
2021/12/03 06:20:19;;;;;;;13.05;8.50;;;;;;;0.39;77.34;99158.28;1765046;81;27321;-70
2021/12/03 06:22:47;;;;;;;14.65;8.80;;;;;;;0.37;77.31;99158.55;1750912;81;25421;-69
2021/12/03 06:25:15;;;;;;;15.08;9.20;;;;;;;0.36;77.16;99156.97;1751061;81;25742;-70
2021/12/03 06:27:42;;;;;;;14.63;8.95;;;;;;;0.34;76.80;99160.41;1751040;81;26156;-70
2021/12/03 06:30:13;;;;;;;14.50;9.03;;;;;;;0.32;76.53;99159.88;1750950;81;25702;-69
2021/12/03 06:32:41;;;;;;;13.10;7.72;;;;;;;0.28;76.45;99159.62;1750973;81;28241;-69
2021/12/03 06:35:11;;;;;;;13.80;8.48;;;;;;;0.25;75.98;99167.34;1753532;80;25542;-70
2021/12/03 06:37:38;;;;;;;13.53;8.53;;;;;;;0.21;75.90;99172.41;1764422;81;25627;-69
2021/12/03 06:40:11;;;;;;;12.58;7.35;;;;;;;0.20;75.78;99170.02;1764373;80;25631;-71
2021/12/03 06:42:37;;;;;;;12.65;7.95;;;;;;;0.18;75.66;99168.41;1764460;80;25767;-68
2021/12/03 06:45:06;;;;;;;12.18;7.17;;;;;;;0.17;75.55;99176.65;1764385;81;27313;-68
2021/12/03 06:47:34;;;;;;;11.95;6.25;;;;;;;0.18;75.64;99178.26;1764310;80;25705;-69
2021/12/03 06:50:03;;;;;;;8.13;6.08;;;;;;;0.15;75.40;99168.14;1764554;81;25565;-69
2021/12/03 06:52:32;;;;;;;8.38;5.37;;;;;;;0.11;75.30;99177.73;1764587;81;25661;-69
2021/12/03 06:55:02;;;;;;;10.17;5.80;;;;;;;0.06;74.86;99181.72;1764727;81;25701;-69
2021/12/03 06:57:27;;;;;;;11.80;5.53;;;;;;;0.01;74.80;99179.86;1764232;80;27367;-69
2021/12/03 06:59:54;;;;;;;7.08;4.90;;;;;;;-0.03;74.70;99184.13;1764298;81;27286;-70
2021/12/03 07:02:21;;;;;;;8.08;4.70;;;;;;;-0.07;74.30;99193.16;1764329;81;25705;-69
2021/12/03 07:04:47;;;;;;;6.25;4.40;;;;;;;-0.15;73.80;99196.34;1764432;81;25620;-69
2021/12/03 07:07:14;;;;;;;7.80;4.10;;;;;;;-0.19;73.81;99211.20;1764386;81;25606;-69
2021/12/03 07:09:41;;;;;;;6.87;4.15;;;;;;;-0.24;73.49;99221.83;1764313;81;27641;-69
2021/12/03 07:12:10;;;;;;;6.00;4.55;;;;;;;-0.30;73.77;99228.22;1764228;81;25678;-70
2021/12/03 07:14:37;;;;;;;8.90;4.63;;;;;;;-0.34;73.89;99231.93;1764599;80;25633;-69
2021/12/03 07:17:06;;;;;;;6.72;4.95;;;;;;;-0.35;74.09;99230.86;1764387;80;25671;-70
2021/12/03 07:19:33;;;;;;;7.83;5.43;;;;;;;-0.34;74.25;99239.09;1814787;78;25630;-69
2021/12/03 07:22:00;;;;;;;7.15;4.80;;;;;;;-0.34;74.43;99235.92;1814264;79;27296;-69
2021/12/03 07:24:28;;;;;;;8.20;5.53;;;;;;;-0.31;74.77;99250.52;1814244;79;25657;-69
2021/12/03 07:26:54;;;;;;;8.03;6.45;;;;;;;-0.31;74.94;99255.30;1814375;79;25617;-69
2021/12/03 07:29:21;;;;;;;12.18;6.60;;;;;;;-0.30;75.01;99262.77;1814180;79;26271;-69
2021/12/03 07:31:48;;;;;;;8.75;6.05;;;;;;;-0.33;74.81;99252.66;1814376;79;25594;-69
2021/12/03 07:34:15;;;;;;;9.23;6.65;;;;;;;-0.30;74.89;99266.75;1814488;79;27325;-69
2021/12/03 07:36:42;;;;;;;11.15;7.10;;;;;;;-0.29;75.10;99271.80;1814442;78;25542;-70
2021/12/03 07:39:09;;;;;;;9.58;6.33;;;;;;;-0.23;75.24;99273.94;1814570;79;25675;-70
2021/12/03 07:41:40;;;;;;;12.88;7.37;;;;;;;-0.22;75.30;99273.67;1814497;79;25787;-69
2021/12/03 07:44:05;;;;;;;11.22;7.17;;;;;;;-0.16;75.39;99277.14;1814164;79;25633;-69
2021/12/03 07:46:32;;;;;;;9.93;7.67;;;;;;;-0.12;75.45;99284.05;1814565;79;27270;-70
2021/12/03 07:48:58;;;;;;;8.70;6.45;;;;;;;-0.08;75.48;99286.47;1814527;79;25604;-70
2021/12/03 07:51:26;;;;;;;8.03;6.30;;;;;;;-0.05;75.23;99283.26;1814557;79;25668;-70
2021/12/03 07:53:53;;;;;;;8.60;6.53;;;;;;;-0.06;74.98;99279.02;1814481;79;25606;-70
2021/12/03 07:56:19;;;;;;;9.13;6.70;;;;;;;-0.06;74.97;99273.17;1814550;79;25534;-70
2021/12/03 07:58:46;;;;;;;8.68;6.67;;;;;;;-0.05;74.79;99283.26;1814504;79;27288;-70
2021/12/03 08:01:13;;;;;;;8.00;6.40;;;;;;;-0.06;74.90;99285.67;1814415;79;25964;-70
2021/12/03 08:03:40;;;;;;;11.68;7.65;;;;;;;-0.05;75.17;99285.41;1814489;79;25609;-70
2021/12/03 08:06:09;;;;;;;11.90;7.78;;;;;;;-0.02;74.95;99281.41;1814427;79;25584;-71
2021/12/03 08:08:38;;;;;;;9.13;6.90;;;;;;;0.01;75.12;99276.11;1814639;79;25529;-70
2021/12/03 08:11:05;;;;;;;;;;;;;;;0.06;75.05;99284.89;1817146;79;27300;-70
2021/12/03 08:13:33;;;;;;;13.40;8.23;;;;;;;0.10;75.04;99272.67;1814395;79;25709;-69
2021/12/03 08:16:01;;;;;;;13.50;8.87;;;;;;;0.15;74.99;99278.00;1814714;79;25587;-69
2021/12/03 08:18:28;;;;;;;11.05;7.55;;;;;;;0.23;75.19;99284.64;1814466;79;26114;-69
2021/12/03 08:20:55;;;;;;;12.45;7.78;;;;;;;0.35;75.00;99286.50;1814545;79;25553;-69
2021/12/03 08:23:22;;;;;;;13.35;8.33;;;;;;;0.49;74.82;99295.29;1814441;79;27357;-70
2021/12/03 08:25:50;;;;;;;12.50;8.90;;;;;;;0.74;74.55;99294.48;1814396;79;25640;-70
2021/12/03 08:28:17;;;;;;;14.13;8.00;;;;;;;0.94;74.34;99300.31;1814496;79;25757;-70
2021/12/03 08:30:43;;;;;;;9.30;6.83;;;;;;;1.02;74.12;99302.95;1814440;79;26149;-69
2021/12/03 08:33:10;;;;;;;8.03;5.87;;;;;;;1.09;73.48;99304.80;1814526;79;25370;-69
2021/12/03 08:35:37;;;;;;;8.98;6.40;;;;;;;1.12;72.60;99302.92;1814308;78;27959;-69
2021/12/03 08:38:03;;;;;;;8.68;6.08;;;;;;;1.26;73.24;99299.16;1812718;79;25579;-69
2021/12/03 08:40:31;;;;;;;8.20;5.92;;;;;;;1.74;73.83;99296.03;1812825;79;25345;-69
2021/12/03 08:42:58;;;;;;;7.20;5.60;;;;;;;2.31;73.54;99307.96;1812790;79;25665;-70
2021/12/03 08:45:25;;;;;;;7.87;5.22;;;;;;;2.44;68.21;99305.21;1812796;79;25273;-70
2021/12/03 08:47:58;;;;;;;5.53;5.03;;;;;;;2.42;69.51;99319.38;1812846;79;27230;-70
2021/12/03 08:50:32;;;;;;;8.53;5.90;;;;;;;2.67;69.85;99308.22;1811907;78;25884;-69
2021/12/03 08:55:18;;;;;;;;;;;;;;;2.60;67.51;99317.89;1815435;78;25643;-69
2021/12/03 08:57:45;;;;;;;7.05;4.62;;;;;;;2.41;67.54;99327.91;1812849;79;25566;-69
2021/12/03 09:00:16;;;;;;;5.33;4.40;;;;;;;2.18;67.42;99320.07;1812676;79;27292;-69
2021/12/03 09:02:44;;;;;;;6.60;4.80;;;;;;;2.06;68.53;99319.62;1812730;78;25731;-70
2021/12/03 09:05:12;;;;;;;6.58;4.25;;;;;;;2.10;67.98;99316.65;1812776;79;25420;-70
2021/12/03 09:07:40;;;;;;;6.12;4.03;;;;;;;2.11;68.06;99320.11;1812769;79;25611;-70
2021/12/03 09:10:12;;;;;;;6.20;5.37;;;;;;;2.23;69.11;99306.70;1818412;78;25283;-70
2021/12/03 09:12:39;;;;;;;5.83;4.15;;;;;;;2.84;69.88;99308.59;1801698;79;27315;-70
2021/12/03 09:15:10;;;;;;;8.88;4.90;;;;;;;3.24;67.41;99309.28;1833819;78;25665;-70
2021/12/03 09:22:59;;;;;;;9.48;4.60;;;;;;;4.06;64.68;99320.30;1832471;78;25617;-70
2021/12/03 09:25:32;;;;;;;7.60;4.53;;;;;;;4.29;66.05;99310.61;1830327;78;27347;-70
2021/12/03 09:27:51;;;;;;;6.78;4.10;;;;;;;4.99;66.38;99314.29;1829459;78;25601;-70
2021/12/03 09:30:19;;;;;;;5.97;4.15;;;;;;;5.42;60.38;99308.66;1832330;78;25379;-70
2021/12/03 09:32:52;;;;;;;8.78;4.55;;;;;;;5.75;62.08;99308.52;1832255;78;25643;-70
2021/12/03 09:35:14;;;;;;;7.10;3.90;;;;;;;6.06;61.65;99293.15;1831620;78;25604;-69
2021/12/03 09:37:41;;;;;;;7.37;4.53;;;;;;;6.41;61.24;99288.59;1823240;77;27249;-69
2021/12/03 09:40:10;;;;;;;9.55;4.78;;;;;;;6.44;59.45;99279.37;1821315;78;25584;-69
2021/12/03 09:42:38;;;;;;;9.65;4.28;;;;;;;6.79;58.85;99288.19;1821615;78;25376;-69
2021/12/03 09:45:09;;;;;;;6.40;4.20;;;;;;;6.98;58.84;99277.21;1821499;78;26578;-69
2021/12/03 09:47:35;;;;;;;8.85;3.75;;;;;;;7.25;59.41;99272.99;1804301;79;25642;-69
2021/12/03 09:50:07;;;;;;;9.30;4.45;;;;;;;7.80;60.25;99271.69;1804325;79;27626;-70
2021/12/03 09:52:44;;;;;;;7.08;4.25;;;;;;;8.06;53.74;99269.56;1803864;79;26232;-70
2021/12/03 09:55:11;;;;;;;9.98;4.70;;;;;;;7.91;55.09;99274.07;1802830;79;25636;-69
2021/12/03 09:57:45;;;;;;;6.25;4.00;;;;;;;8.03;52.85;99261.55;1803852;79;25509;-70
2021/12/03 10:00:18;;;;;;;8.28;4.08;;;;;;;7.93;53.03;99273.98;1859022;77;25402;-70
2021/12/03 10:11:35;;;;;;;7.60;4.20;;;;;;;7.10;54.02;99249.99;1860559;77;25733;-70
2021/12/03 10:29:09;;;;;;;6.90;3.75;;;;;;;8.44;47.19;99229.84;1827069;78;33070;-70
2021/12/03 10:35:23;;;;;;;11.48;4.92;;;;;;;7.37;48.36;99223.16;1826811;78;25379;-70
2021/12/03 10:39:46;;;;;;;5.45;4.12;;;;;;;6.06;51.05;99205.90;1820781;78;25719;-70
2021/12/03 10:48:36;;;;;;;7.33;4.05;;;;;;;6.44;52.24;99214.11;1772068;80;25522;-69
2021/12/03 10:50:43;;;;;;;6.92;4.37;;;;;;;6.61;51.63;99218.23;1756250;79;26343;-69
2021/12/03 11:31:18;;;;;;;12.30;5.00;;;;;;;6.51;51.15;99208.53;1820543;78;25625;-68
2021/12/03 11:42:40;;;;;;;9.63;4.72;;;;;;;4.66;54.59;99227.23;1820695;78;25732;-71
2021/12/03 11:51:12;;;;;;;8.93;5.10;;;;;;;3.84;57.22;99229.91;1820720;78;27315;-70
2021/12/03 12:35:41;;;;;;;12.68;3.95;;;;;;;2.61;63.40;99256.20;1786684;80;25565;-72
2021/12/03 12:44:31;;;;;;;12.93;3.90;;;;;;;2.36;64.87;99263.09;1820891;78;25441;-72
2021/12/03 14:00:01;;;;;;;11.03;5.25;;;;;;;1.61;71.14;99335.55;1768514;81;25727;-71
2021/12/03 14:37:34;;;;;;;12.78;5.78;;;;;;;1.68;70.59;99373.38;1796971;79;25620;-71
2021/12/03 14:45:13;;;;;;;14.20;5.67;;;;;;;1.68;70.71;99389.37;1788728;80;25421;-71
2021/12/03 14:47:53;;;;;;;15.70;5.90;;;;;;;1.70;70.64;99397.09;1787852;80;27333;-70
2021/12/03 14:53:12;;;;;;;17.27;6.08;;;;;;;1.71;70.68;99405.38;1779903;79;25816;-70
2021/12/03 14:55:31;;;;;;;16.87;7.78;;;;;;;1.71;70.72;99404.04;1780830;79;25701;-72
2021/12/03 14:58:13;;;;;;;15.05;6.17;;;;;;;1.71;70.82;99403.25;1811933;78;25620;-71
2021/12/03 15:03:29;;;;;;;18.65;6.12;;;;;;;1.70;70.92;99410.97;1818811;78;25664;-71
2021/12/03 15:06:12;;;;;;;19.05;8.83;;;;;;;1.67;70.86;99402.45;1808932;78;26037;-71
2021/12/03 15:12:03;;;;;;;17.27;6.80;;;;;;;1.69;70.91;99418.18;1815647;79;25652;-71
2021/12/03 15:19:59;;;;;;;15.55;5.62;;;;;;;1.70;70.83;99418.97;1738551;82;25702;-72
2021/12/03 15:30:24;;;;;;;11.57;5.30;;;;;;;1.74;70.81;99430.67;1645575;87;26249;-72
2021/12/03 15:32:47;;;;;;;17.00;6.45;;;;;;;1.76;70.79;99429.89;1639668;86;25774;-72
2021/12/03 15:35:20;;;;;;;19.60;6.67;;;;;;;1.75;70.76;99433.62;1660539;86;25793;-71
2021/12/03 16:04:24;;;;;;;12.88;6.15;;;;;;;1.82;70.18;99458.13;1785966;80;25698;-71
2021/12/03 16:14:52;;;;;;;15.75;7.08;;;;;;;1.79;70.17;99466.14;1781974;80;25610;-73
2021/12/03 16:22:48;;;;;;;17.40;6.03;;;;;;;1.78;70.15;99475.20;1759394;81;26016;-73
2021/12/03 16:25:29;;;;;;;19.37;6.92;;;;;;;1.82;70.20;99480.28;1745448;81;25665;-73
2021/12/03 16:44:45;;;;;;;15.43;6.12;;;;;;;1.86;70.08;99495.98;1705297;84;25740;-71
2021/12/03 16:46:43;;;;;;;17.05;6.25;;;;;;;1.88;70.15;99508.27;1697144;84;27396;-70
2021/12/03 16:51:51;;;;;;;11.15;6.00;;;;;;;1.88;70.21;99502.94;1705262;84;25665;-70
2021/12/03 16:54:40;;;;;;;16.02;6.15;;;;;;;1.91;70.30;99510.37;1705350;84;25797;-71
2021/12/03 16:57:02;;;;;;;14.03;7.42;;;;;;;1.91;70.27;99499.19;1704060;83;26370;-71
2021/12/03 16:59:29;;;;;;;11.10;5.95;;;;;;;1.91;70.06;99511.19;1712066;83;27419;-72
2021/12/03 17:02:05;;;;;;;13.60;7.37;;;;;;;1.94;70.27;99523.17;1703607;83;25837;-71
2021/12/03 17:04:54;;;;;;;18.70;6.90;;;;;;;1.94;70.30;99523.17;1722488;83;26393;-71
2021/12/03 17:28:50;;;;;;;12.18;6.15;;;;;;;1.96;70.12;99524.52;1817822;78;25670;-71
2021/12/03 17:49:51;;;;;;;13.15;5.65;;;;;;;1.97;69.65;99526.09;1804986;78;25562;-72
2021/12/03 17:57:52;;;;;;;12.63;5.17;;;;;;;2.00;69.03;99528.23;1812770;78;25634;-71
2021/12/03 17:59:53;;;;;;;15.63;6.05;;;;;;;2.01;69.39;99530.34;1807631;78;26349;-72
2021/12/03 18:08:04;;;;;;;13.98;5.65;;;;;;;2.00;69.02;99534.11;1820418;78;26291;-68
2021/12/03 18:16:06;;;;;;;14.25;4.95;;;;;;;1.97;68.73;99537.30;1820118;78;25448;-67